Time;durP1;ratioP1;P1;durP2;ratioP2;P2;SDS_P1;SDS_P2;PMS_P1;PMS_P2;Temp;Humidity;BMP_temperature;BMP_pressure;BME280_temperature;BME280_humidity;BME280_pressure;Samples;Min_cycle;Max_cycle;Signal;HPM_P1;HPM_P2
2022/01/12 00:01:05;;;;;;;100.78;27.77;;;;;;;;;;5054531;28;20488;-81
2022/01/12 00:03:32;;;;;;;101.47;27.17;;;;;;;;;;5071059;28;20040;-80
2022/01/12 00:05:58;;;;;;;108.18;28.90;;;;;;;;;;5070820;28;20484;-81
2022/01/12 00:08:25;;;;;;;103.55;28.27;;;;;;;;;;5071069;28;20048;-80
2022/01/12 00:10:51;;;;;;;104.15;28.10;;;;;;;;;;5071966;28;20419;-80
2022/01/12 00:13:17;;;;;;;127.82;30.08;;;;;;;;;;5070493;28;20040;-80
2022/01/12 00:15:44;;;;;;;122.13;30.20;;;;;;;;;;5070117;28;20071;-81
2022/01/12 00:18:10;;;;;;;101.78;27.38;;;;;;;;;;5070602;28;20040;-80
2022/01/12 00:20:36;;;;;;;129.27;30.20;;;;;;;;;;5070865;28;20667;-80
2022/01/12 00:23:02;;;;;;;130.98;30.58;;;;;;;;;;5071476;28;20075;-80
2022/01/12 00:25:44;;;;;;;117.68;29.83;;;;;;;;;;5070523;28;20045;-80
2022/01/12 00:33:40;;;;;;;147.90;30.23;;;;;;;;;;5069573;28;20127;-81
2022/01/12 00:36:06;;;;;;;139.60;30.73;;;;;;;;;;5070312;28;20086;-80
2022/01/12 00:38:33;;;;;;;134.68;30.27;;;;;;;;;;5069911;28;20052;-80
2022/01/12 00:40:59;;;;;;;163.75;31.52;;;;;;;;;;5070206;28;20076;-81
2022/01/12 00:43:28;;;;;;;155.57;30.73;;;;;;;;;;5072301;28;20051;-80
2022/01/12 00:45:55;;;;;;;154.23;32.40;;;;;;;;;;5069837;28;20040;-81
2022/01/12 00:48:21;;;;;;;138.68;30.42;;;;;;;;;;5070443;28;20094;-80
2022/01/12 00:50:48;;;;;;;189.30;33.42;;;;;;;;;;5053240;28;20067;-81
2022/01/12 00:53:16;;;;;;;141.38;30.50;;;;;;;;;;5069590;28;20048;-81
2022/01/12 00:55:42;;;;;;;197.40;34.10;;;;;;;;;;5070779;28;20044;-80
2022/01/12 00:58:08;;;;;;;148.35;30.73;;;;;;;;;;5070056;28;20501;-81
2022/01/12 01:00:35;;;;;;;203.13;34.13;;;;;;;;;;5069818;28;20095;-81
2022/01/12 01:03:01;;;;;;;185.00;32.42;;;;;;;;;;5052779;28;20055;-80
2022/01/12 01:05:29;;;;;;;158.85;31.65;;;;;;;;;;5069489;28;20048;-81
2022/01/12 01:07:55;;;;;;;178.07;31.48;;;;;;;;;;5071177;28;20438;-80
2022/01/12 01:10:33;;;;;;;182.23;32.67;;;;;;;;;;5070174;28;20044;-80
2022/01/12 01:12:59;;;;;;;204.48;33.78;;;;;;;;;;5070461;28;20045;-81
2022/01/12 01:15:53;;;;;;;180.40;33.40;;;;;;;;;;5070738;28;20120;-81
2022/01/12 01:26:33;;;;;;;215.30;32.58;;;;;;;;;;5070115;28;20325;-80
2022/01/12 01:28:59;;;;;;;146.45;30.40;;;;;;;;;;5069913;28;20101;-80
2022/01/12 01:31:31;;;;;;;122.32;29.05;;;;;;;;;;5069675;28;20032;-81
2022/01/12 01:33:59;;;;;;;120.65;30.15;;;;;;;;;;5070718;28;20416;-80
2022/01/12 01:36:27;;;;;;;161.30;31.60;;;;;;;;;;5052906;28;20316;-80
2022/01/12 01:38:54;;;;;;;201.15;32.95;;;;;;;;;;5070735;28;20055;-80
2022/01/12 01:41:23;;;;;;;190.32;32.13;;;;;;;;;;5070524;28;20076;-80
2022/01/12 01:54:50;;;;;;;132.27;30.67;;;;;;;;;;5049578;28;20508;-80
2022/01/12 01:57:16;;;;;;;310.40;35.15;;;;;;;;;;5050375;28;20040;-80
2022/01/12 01:59:42;;;;;;;206.63;31.45;;;;;;;;;;5033501;28;20099;-79
2022/01/12 02:02:09;;;;;;;272.20;33.20;;;;;;;;;;5049748;28;20041;-80
2022/01/12 02:04:35;;;;;;;235.90;31.35;;;;;;;;;;5049693;28;20560;-80
2022/01/12 02:07:01;;;;;;;180.85;30.73;;;;;;;;;;5049187;28;20037;-80
2022/01/12 02:09:27;;;;;;;268.10;31.00;;;;;;;;;;5049940;28;20048;-80
2022/01/12 02:11:53;;;;;;;153.27;28.98;;;;;;;;;;5050096;28;20562;-80
2022/01/12 02:14:20;;;;;;;160.05;28.20;;;;;;;;;;5032766;28;20124;-80
2022/01/12 02:16:57;;;;;;;253.73;31.48;;;;;;;;;;5050322;28;20048;-80
2022/01/12 02:36:10;;;;;;;307.17;31.77;;;;;;;;;;5068694;28;20488;-80
2022/01/12 02:41:22;;;;;;;263.73;30.40;;;;;;;;;;5068785;28;20044;-81
2022/01/12 02:54:51;;;;;;;331.70;32.92;;;;;;;;;;5069766;28;20495;-81
2022/01/12 02:57:17;;;;;;;335.92;30.83;;;;;;;;;;5071357;28;20044;-80
2022/01/12 03:02:36;;;;;;;436.30;33.42;;;;;;;;;;5057697;28;20049;-81
2022/01/12 03:07:44;;;;;;;411.80;32.75;;;;;;;;;;5068940;28;20041;-80
2022/01/12 03:10:11;;;;;;;338.85;31.60;;;;;;;;;;5068754;28;20549;-80
2022/01/12 03:12:38;;;;;;;404.38;32.83;;;;;;;;;;5071139;28;20044;-80
2022/01/12 03:15:04;;;;;;;404.50;32.65;;;;;;;;;;5051967;28;20055;-80
2022/01/12 03:17:30;;;;;;;486.23;35.03;;;;;;;;;;5072764;28;20049;-80
2022/01/12 03:19:56;;;;;;;213.75;26.90;;;;;;;;;;5069094;28;20048;-80
2022/01/12 03:22:22;;;;;;;314.23;31.40;;;;;;;;;;5068082;28;20040;-80
2022/01/12 03:24:48;;;;;;;199.95;28.15;;;;;;;;;;5091796;28;20559;-81
2022/01/12 03:27:16;;;;;;;274.40;28.75;;;;;;;;;;5070297;28;20109;-80
2022/01/12 03:29:43;;;;;;;197.38;26.75;;;;;;;;;;5068231;28;20082;-80
2022/01/12 03:32:12;;;;;;;326.83;30.05;;;;;;;;;;5068967;28;20051;-80
2022/01/12 03:34:41;;;;;;;130.23;24.42;;;;;;;;;;5069411;28;20040;-80
2022/01/12 03:39:52;;;;;;;164.65;26.70;;;;;;;;;;5069879;28;20048;-80
2022/01/12 03:42:19;;;;;;;280.38;29.10;;;;;;;;;;5055108;28;20043;-80
2022/01/12 03:44:45;;;;;;;207.38;25.83;;;;;;;;;;5071611;28;20049;-80
2022/01/12 03:47:11;;;;;;;191.10;25.83;;;;;;;;;;5072591;28;20040;-80
2022/01/12 03:49:37;;;;;;;218.93;27.58;;;;;;;;;;5071773;28;20048;-80
2022/01/12 03:52:04;;;;;;;172.70;24.17;;;;;;;;;;5071281;28;20044;-80
2022/01/12 03:54:30;;;;;;;204.38;25.80;;;;;;;;;;5071305;28;20047;-80
2022/01/12 03:56:59;;;;;;;112.28;23.77;;;;;;;;;;5070809;28;20036;-80
2022/01/12 03:59:25;;;;;;;110.13;23.58;;;;;;;;;;5073242;28;20046;-80
2022/01/12 04:01:51;;;;;;;145.13;24.55;;;;;;;;;;5071389;28;20037;-80
2022/01/12 04:04:23;;;;;;;309.83;26.58;;;;;;;;;;5054598;28;20488;-81
2022/01/12 04:09:33;;;;;;;109.38;22.13;;;;;;;;;;5072177;28;20508;-80
2022/01/12 04:12:00;;;;;;;103.95;22.92;;;;;;;;;;5054253;28;20048;-80
2022/01/12 04:14:26;;;;;;;90.65;20.67;;;;;;;;;;5054127;28;20050;-80
2022/01/12 04:16:52;;;;;;;97.88;21.63;;;;;;;;;;5070633;28;20041;-80
2022/01/12 04:19:18;;;;;;;79.95;20.08;;;;;;;;;;5070940;28;20046;-80
2022/01/12 04:21:48;;;;;;;99.35;21.88;;;;;;;;;;5054595;28;20550;-80
2022/01/12 04:24:14;;;;;;;77.22;18.95;;;;;;;;;;5071955;28;20044;-81
2022/01/12 04:26:40;;;;;;;78.10;18.60;;;;;;;;;;5073244;28;20115;-80
2022/01/12 04:29:07;;;;;;;79.60;17.85;;;;;;;;;;5072234;28;20075;-81
2022/01/12 04:31:34;;;;;;;71.93;16.35;;;;;;;;;;5054044;28;20464;-81
2022/01/12 04:34:00;;;;;;;79.13;17.77;;;;;;;;;;5070252;28;20052;-79
2022/01/12 04:36:26;;;;;;;80.53;18.45;;;;;;;;;;5070897;28;20040;-79
2022/01/12 04:38:52;;;;;;;81.05;18.30;;;;;;;;;;5070497;28;20389;-79
2022/01/12 04:41:18;;;;;;;76.75;16.98;;;;;;;;;;5072002;28;20112;-79
2022/01/12 04:43:45;;;;;;;100.40;17.83;;;;;;;;;;5070172;28;20043;-79
2022/01/12 04:51:17;;;;;;;127.30;16.55;;;;;;;;;;5071293;28;20097;-79
2022/01/12 04:53:43;;;;;;;75.97;14.63;;;;;;;;;;5071239;28;20037;-80
2022/01/12 04:56:09;;;;;;;109.95;14.70;;;;;;;;;;5037562;28;20131;-80
2022/01/12 04:58:35;;;;;;;187.05;15.70;;;;;;;;;;5053301;28;20092;-80
2022/01/12 05:01:50;;;;;;;209.68;16.23;;;;;;;;;;5047213;28;20048;-79
2022/01/12 05:07:10;;;;;;;126.40;14.02;;;;;;;;;;5068753;28;20048;-79
2022/01/12 05:09:49;;;;;;;140.70;12.75;;;;;;;;;;5070877;28;20104;-79
2022/01/12 05:15:07;;;;;;;124.80;11.52;;;;;;;;;;5071028;28;20581;-79
2022/01/12 05:17:34;;;;;;;154.90;12.50;;;;;;;;;;5071003;28;20449;-79
2022/01/12 05:20:00;;;;;;;102.15;12.27;;;;;;;;;;5053134;28;20109;-79
2022/01/12 05:22:26;;;;;;;63.45;12.85;;;;;;;;;;5070637;28;20495;-79
2022/01/12 05:24:52;;;;;;;46.33;11.40;;;;;;;;;;5054078;28;20048;-79
2022/01/12 05:27:19;;;;;;;69.63;12.68;;;;;;;;;;5070417;28;20109;-79
2022/01/12 05:29:45;;;;;;;73.15;13.27;;;;;;;;;;5069364;28;20044;-79
2022/01/12 05:32:11;;;;;;;51.00;12.77;;;;;;;;;;5069427;28;20129;-79
2022/01/12 05:34:38;;;;;;;85.97;15.15;;;;;;;;;;5069535;28;20059;-79
2022/01/12 05:37:05;;;;;;;73.00;13.10;;;;;;;;;;5068864;28;20156;-79
2022/01/12 05:39:31;;;;;;;79.88;13.63;;;;;;;;;;5069138;28;20048;-79
2022/01/12 05:41:57;;;;;;;96.95;12.75;;;;;;;;;;5068878;28;20083;-79
2022/01/12 05:44:25;;;;;;;40.78;11.07;;;;;;;;;;5053660;28;20407;-79
2022/01/12 05:46:53;;;;;;;28.20;10.45;;;;;;;;;;5053301;28;20480;-79
2022/01/12 05:49:35;;;;;;;31.63;11.50;;;;;;;;;;5069249;28;20106;-79
2022/01/12 05:52:01;;;;;;;33.38;10.55;;;;;;;;;;5068731;28;20114;-79
2022/01/12 05:54:27;;;;;;;52.67;10.95;;;;;;;;;;5069112;28;20044;-79
2022/01/12 05:56:54;;;;;;;41.58;11.05;;;;;;;;;;5068039;28;20040;-79
2022/01/12 05:59:20;;;;;;;52.45;13.50;;;;;;;;;;5068754;28;20036;-79
2022/01/12 06:01:46;;;;;;;50.15;12.70;;;;;;;;;;5068697;28;20036;-79
2022/01/12 06:04:12;;;;;;;79.80;13.35;;;;;;;;;;5070440;28;20097;-79
2022/01/12 06:06:38;;;;;;;43.35;12.27;;;;;;;;;;5069093;28;20036;-79
2022/01/12 06:09:04;;;;;;;60.53;13.40;;;;;;;;;;5068383;28;20105;-79
2022/01/12 06:11:30;;;;;;;40.53;11.80;;;;;;;;;;5069844;28;20049;-79
2022/01/12 06:13:58;;;;;;;50.33;11.88;;;;;;;;;;5068164;28;20044;-79
2022/01/12 06:16:24;;;;;;;62.28;11.93;;;;;;;;;;5052377;28;20065;-79
2022/01/12 06:18:52;;;;;;;43.15;10.57;;;;;;;;;;5068470;28;20486;-79
2022/01/12 06:21:18;;;;;;;48.90;11.50;;;;;;;;;;5071092;28;20066;-79
2022/01/12 06:23:44;;;;;;;41.28;11.38;;;;;;;;;;5069566;28;20033;-79
2022/01/12 06:26:10;;;;;;;59.83;11.70;;;;;;;;;;5068578;28;20047;-79
2022/01/12 06:28:40;;;;;;;49.80;11.75;;;;;;;;;;5052320;28;20040;-79
2022/01/12 06:31:10;;;;;;;151.55;14.00;;;;;;;;;;5069334;28;20032;-79
2022/01/12 06:33:40;;;;;;;48.50;12.68;;;;;;;;;;5069053;28;20036;-79
2022/01/12 06:36:07;;;;;;;102.25;13.07;;;;;;;;;;5052626;28;20472;-79
2022/01/12 06:38:33;;;;;;;82.05;12.65;;;;;;;;;;5068411;28;20052;-79
2022/01/12 06:40:59;;;;;;;101.60;12.93;;;;;;;;;;5052142;28;20182;-79
2022/01/12 06:43:27;;;;;;;126.68;13.57;;;;;;;;;;5068704;28;20043;-79
2022/01/12 06:45:54;;;;;;;52.83;11.93;;;;;;;;;;5068699;28;20049;-79
2022/01/12 06:48:20;;;;;;;51.15;11.20;;;;;;;;;;5052187;28;20072;-79
2022/01/12 06:50:46;;;;;;;39.28;10.63;;;;;;;;;;5069844;28;20041;-79
2022/01/12 06:53:12;;;;;;;87.13;11.45;;;;;;;;;;5067831;28;20375;-79
2022/01/12 06:55:38;;;;;;;120.78;13.65;;;;;;;;;;5069733;28;20044;-79
2022/01/12 06:58:04;;;;;;;160.80;13.40;;;;;;;;;;5068573;28;20492;-79
2022/01/12 07:00:30;;;;;;;117.07;10.52;;;;;;;;;;5035711;28;20109;-79
2022/01/12 07:02:57;;;;;;;51.45;9.75;;;;;;;;;;5068484;28;20041;-79
2022/01/12 07:05:23;;;;;;;268.40;16.25;;;;;;;;;;5069502;28;20041;-79
2022/01/12 07:07:49;;;;;;;159.77;12.50;;;;;;;;;;5070249;28;20043;-79
2022/01/12 07:10:15;;;;;;;144.48;13.25;;;;;;;;;;5069812;28;20044;-79
2022/01/12 07:12:41;;;;;;;92.20;10.38;;;;;;;;;;5051673;28;20048;-79
2022/01/12 07:15:07;;;;;;;111.90;11.98;;;;;;;;;;5069362;28;20040;-79
2022/01/12 07:17:34;;;;;;;64.80;11.75;;;;;;;;;;5072861;28;20040;-79
2022/01/12 07:20:00;;;;;;;104.82;12.85;;;;;;;;;;5073132;28;20048;-79
2022/01/12 07:22:26;;;;;;;117.70;12.30;;;;;;;;;;5075262;28;20083;-79
2022/01/12 07:24:52;;;;;;;135.98;14.55;;;;;;;;;;5039938;28;20111;-79
2022/01/12 07:27:18;;;;;;;165.40;14.38;;;;;;;;;;5073057;28;20044;-79
2022/01/12 07:29:44;;;;;;;152.93;13.60;;;;;;;;;;5072290;28;20131;-79
2022/01/12 07:32:10;;;;;;;158.10;14.95;;;;;;;;;;5071760;28;20041;-79
2022/01/12 07:34:36;;;;;;;198.20;16.23;;;;;;;;;;5039049;28;20106;-79
2022/01/12 07:37:02;;;;;;;108.90;12.93;;;;;;;;;;5071239;28;20078;-79
2022/01/12 07:39:28;;;;;;;167.18;15.90;;;;;;;;;;5071948;28;20044;-79
2022/01/12 07:41:54;;;;;;;197.88;16.90;;;;;;;;;;5072201;28;20119;-79
2022/01/12 07:44:21;;;;;;;344.13;22.08;;;;;;;;;;5071498;28;20055;-79
2022/01/12 07:46:47;;;;;;;239.00;17.92;;;;;;;;;;5072171;28;20404;-79
2022/01/12 07:49:14;;;;;;;215.23;16.70;;;;;;;;;;5071685;28;20075;-79
2022/01/12 07:51:41;;;;;;;296.00;21.65;;;;;;;;;;5106915;28;20044;-79
2022/01/12 07:54:07;;;;;;;408.05;24.95;;;;;;;;;;5056215;28;20049;-79
2022/01/12 07:56:33;;;;;;;245.55;19.33;;;;;;;;;;5072436;28;20181;-79
2022/01/12 07:58:59;;;;;;;385.05;25.73;;;;;;;;;;5070430;28;20048;-79
2022/01/12 08:01:25;;;;;;;330.52;21.80;;;;;;;;;;5071562;28;20051;-79
2022/01/12 08:03:51;;;;;;;346.58;21.15;;;;;;;;;;5071180;28;20159;-79
2022/01/12 08:06:17;;;;;;;423.73;24.92;;;;;;;;;;5072490;28;20102;-79
2022/01/12 08:08:44;;;;;;;175.10;17.33;;;;;;;;;;5055224;28;20565;-79
2022/01/12 08:11:10;;;;;;;274.67;20.52;;;;;;;;;;5087584;28;20041;-79
2022/01/12 08:13:36;;;;;;;280.23;20.90;;;;;;;;;;5071021;28;20040;-79
2022/01/12 08:16:02;;;;;;;357.17;21.65;;;;;;;;;;5071002;28;20072;-79
2022/01/12 08:18:28;;;;;;;324.98;20.85;;;;;;;;;;5071530;28;20040;-79
2022/01/12 08:20:54;;;;;;;326.30;21.20;;;;;;;;;;5071338;28;20040;-79
2022/01/12 08:23:20;;;;;;;290.83;20.45;;;;;;;;;;5072248;28;20472;-79
2022/01/12 08:25:46;;;;;;;179.57;17.08;;;;;;;;;;5072494;28;20049;-79
2022/01/12 08:28:13;;;;;;;246.27;18.10;;;;;;;;;;5071652;28;20045;-79
2022/01/12 08:30:39;;;;;;;265.73;18.63;;;;;;;;;;5071475;28;20488;-79
2022/01/12 08:33:06;;;;;;;223.85;16.83;;;;;;;;;;5053897;28;20045;-79
2022/01/12 08:35:32;;;;;;;222.30;16.77;;;;;;;;;;5072188;28;20103;-79
2022/01/12 08:37:59;;;;;;;119.50;13.30;;;;;;;;;;5053867;28;20425;-80
2022/01/12 08:40:25;;;;;;;166.65;15.38;;;;;;;;;;5070508;28;20089;-79
2022/01/12 08:42:51;;;;;;;153.75;16.85;;;;;;;;;;5053985;28;20450;-79
2022/01/12 08:45:18;;;;;;;116.68;13.38;;;;;;;;;;5070228;28;20055;-80
2022/01/12 08:47:44;;;;;;;235.35;18.15;;;;;;;;;;5053323;28;20047;-80
2022/01/12 08:50:10;;;;;;;157.65;16.25;;;;;;;;;;5071050;28;20036;-80
2022/01/12 08:52:36;;;;;;;168.60;16.60;;;;;;;;;;5070153;28;20036;-80
2022/01/12 08:55:03;;;;;;;156.63;16.50;;;;;;;;;;5053150;28;20390;-80
2022/01/12 08:57:30;;;;;;;260.98;17.90;;;;;;;;;;5070278;28;20048;-79
2022/01/12 08:59:57;;;;;;;211.55;16.63;;;;;;;;;;5053301;28;20072;-80
2022/01/12 09:02:23;;;;;;;77.45;13.45;;;;;;;;;;5069991;28;20043;-80
2022/01/12 09:04:49;;;;;;;146.52;14.90;;;;;;;;;;5071417;28;20124;-79
2022/01/12 09:07:15;;;;;;;184.65;16.33;;;;;;;;;;5070923;28;20131;-79
2022/01/12 09:09:41;;;;;;;171.48;15.50;;;;;;;;;;5053510;28;20466;-79
2022/01/12 09:12:08;;;;;;;161.52;14.60;;;;;;;;;;5069613;28;20442;-80
2022/01/12 09:14:34;;;;;;;102.28;12.68;;;;;;;;;;5069839;28;20496;-80
2022/01/12 09:17:00;;;;;;;85.20;11.65;;;;;;;;;;5068995;28;20068;-79
2022/01/12 09:19:27;;;;;;;96.45;11.70;;;;;;;;;;5069503;28;20033;-80
2022/01/12 09:21:54;;;;;;;103.80;10.93;;;;;;;;;;5052722;28;20082;-79
2022/01/12 09:24:20;;;;;;;108.53;11.10;;;;;;;;;;5069513;28;20051;-80
2022/01/12 09:26:46;;;;;;;69.25;10.07;;;;;;;;;;5070755;28;20549;-80
2022/01/12 09:29:12;;;;;;;88.22;10.30;;;;;;;;;;5052659;28;20040;-79
2022/01/12 09:31:39;;;;;;;79.50;10.88;;;;;;;;;;5069138;28;20148;-80
2022/01/12 09:34:05;;;;;;;62.88;10.00;;;;;;;;;;5068902;28;20044;-80
2022/01/12 09:36:32;;;;;;;50.20;11.02;;;;;;;;;;5069433;28;20048;-79
2022/01/12 09:39:00;;;;;;;60.78;12.90;;;;;;;;;;5067993;28;20048;-80
2022/01/12 09:41:27;;;;;;;49.80;11.80;;;;;;;;;;5069125;28;20040;-79
2022/01/12 09:43:54;;;;;;;45.05;12.85;;;;;;;;;;5069186;28;20041;-79
2022/01/12 09:46:23;;;;;;;36.58;10.38;;;;;;;;;;5069204;28;20051;-79
2022/01/12 09:48:49;;;;;;;36.63;8.90;;;;;;;;;;5069030;28;20036;-80
2022/01/12 09:51:15;;;;;;;35.13;9.02;;;;;;;;;;5052048;28;20054;-79
2022/01/12 09:53:41;;;;;;;26.25;8.52;;;;;;;;;;5052179;28;20040;-80
2022/01/12 09:56:16;;;;;;;35.65;9.20;;;;;;;;;;5068467;28;20101;-79
2022/01/12 09:58:43;;;;;;;32.55;8.88;;;;;;;;;;5068822;28;20044;-79
2022/01/12 10:01:09;;;;;;;41.70;10.00;;;;;;;;;;5068343;28;20141;-80
2022/01/12 10:03:36;;;;;;;30.25;9.40;;;;;;;;;;5070103;28;20036;-79
2022/01/12 10:06:12;;;;;;;27.95;9.23;;;;;;;;;;5068750;28;20369;-80
2022/01/12 10:08:38;;;;;;;26.95;8.32;;;;;;;;;;5069069;28;20110;-79
2022/01/12 10:11:06;;;;;;;27.88;8.15;;;;;;;;;;5068257;28;20047;-80
2022/01/12 10:13:32;;;;;;;30.13;8.23;;;;;;;;;;5069164;28;20500;-80
2022/01/12 10:16:09;;;;;;;22.70;7.40;;;;;;;;;;5068061;28;20076;-80
2022/01/12 10:18:44;;;;;;;25.08;7.35;;;;;;;;;;5069102;28;20072;-80
2022/01/12 10:21:10;;;;;;;29.83;7.40;;;;;;;;;;5068097;28;20047;-79
2022/01/12 10:23:38;;;;;;;32.60;7.47;;;;;;;;;;5068756;28;20102;-80
2022/01/12 10:26:04;;;;;;;28.10;6.88;;;;;;;;;;5068535;28;20052;-80
2022/01/12 10:28:31;;;;;;;26.90;7.20;;;;;;;;;;5069677;28;20071;-79
2022/01/12 10:30:58;;;;;;;54.83;6.88;;;;;;;;;;5068105;28;20040;-80
2022/01/12 10:33:31;;;;;;;36.97;7.32;;;;;;;;;;5068422;28;20496;-80
2022/01/12 10:35:59;;;;;;;31.90;7.93;;;;;;;;;;5068049;28;20382;-80
2022/01/12 10:38:26;;;;;;;55.92;7.28;;;;;;;;;;5051498;28;20044;-80
2022/01/12 10:40:52;;;;;;;71.43;8.40;;;;;;;;;;5068617;28;20510;-80
2022/01/12 10:43:44;;;;;;;76.30;8.32;;;;;;;;;;5068333;28;20041;-80
2022/01/12 10:46:10;;;;;;;36.25;7.28;;;;;;;;;;5066450;28;20116;-80
2022/01/12 10:48:45;;;;;;;55.80;7.75;;;;;;;;;;5068734;28;20380;-80
2022/01/12 10:51:12;;;;;;;84.30;8.40;;;;;;;;;;5070009;28;20047;-80
2022/01/12 10:53:38;;;;;;;71.90;8.30;;;;;;;;;;5074372;28;20048;-80
2022/01/12 10:56:05;;;;;;;88.20;8.95;;;;;;;;;;5056029;28;20457;-80
2022/01/12 10:58:32;;;;;;;63.13;8.02;;;;;;;;;;5072884;28;20126;-80
2022/01/12 11:00:58;;;;;;;50.60;7.65;;;;;;;;;;5072425;28;20036;-80
2022/01/12 11:03:25;;;;;;;65.78;8.30;;;;;;;;;;5071782;28;20102;-80
2022/01/12 11:05:53;;;;;;;39.72;6.50;;;;;;;;;;5073695;28;20048;-80
2022/01/12 11:08:20;;;;;;;82.78;7.60;;;;;;;;;;5072071;28;20048;-80
2022/01/12 11:10:46;;;;;;;66.82;6.45;;;;;;;;;;5072460;28;20048;-80
2022/01/12 11:13:12;;;;;;;79.15;6.68;;;;;;;;;;5073145;28;20134;-80
2022/01/12 11:15:39;;;;;;;65.57;6.03;;;;;;;;;;5072453;28;20044;-80
2022/01/12 11:18:05;;;;;;;61.50;6.10;;;;;;;;;;5071927;28;20139;-80
2022/01/12 11:20:32;;;;;;;37.65;5.68;;;;;;;;;;5055165;28;20041;-80
2022/01/12 11:23:18;;;;;;;78.32;5.60;;;;;;;;;;5071166;28;20063;-80
2022/01/12 11:25:45;;;;;;;43.03;5.32;;;;;;;;;;5055458;28;20389;-80
2022/01/12 11:28:14;;;;;;;52.83;5.28;;;;;;;;;;5072980;28;20036;-80
2022/01/12 11:30:45;;;;;;;56.70;5.47;;;;;;;;;;5072336;28;20439;-80
2022/01/12 11:33:12;;;;;;;65.15;5.75;;;;;;;;;;5055045;28;20066;-79
2022/01/12 11:35:40;;;;;;;60.90;6.28;;;;;;;;;;5071809;28;20041;-79
2022/01/12 11:38:06;;;;;;;48.70;6.25;;;;;;;;;;5071740;28;20056;-79
2022/01/12 11:40:33;;;;;;;55.83;6.70;;;;;;;;;;5072442;28;20051;-79
2022/01/12 11:43:00;;;;;;;48.47;6.38;;;;;;;;;;5055432;28;20498;-79
2022/01/12 11:45:26;;;;;;;76.03;6.90;;;;;;;;;;5106810;28;20044;-79
2022/01/12 11:47:52;;;;;;;38.17;5.38;;;;;;;;;;5072065;28;20123;-79
2022/01/12 11:50:18;;;;;;;64.22;7.03;;;;;;;;;;5071120;28;20044;-80
2022/01/12 11:52:44;;;;;;;60.83;7.40;;;;;;;;;;5054809;28;20504;-80
2022/01/12 11:55:12;;;;;;;54.03;7.03;;;;;;;;;;5037707;28;20044;-80
2022/01/12 11:57:41;;;;;;;44.97;7.45;;;;;;;;;;5054587;28;20079;-80
2022/01/12 12:00:12;;;;;;;43.35;7.40;;;;;;;;;;5071262;28;20506;-80
2022/01/12 12:02:42;;;;;;;49.78;7.65;;;;;;;;;;5072598;28;20033;-79
2022/01/12 12:05:17;;;;;;;51.45;7.88;;;;;;;;;;5070926;28;20136;-80
2022/01/12 12:07:44;;;;;;;56.95;7.80;;;;;;;;;;5055136;28;20048;-80
2022/01/12 12:10:11;;;;;;;32.08;6.93;;;;;;;;;;5054813;28;20072;-80
2022/01/12 12:12:38;;;;;;;39.50;7.35;;;;;;;;;;5071304;28;20041;-80
2022/01/12 12:15:05;;;;;;;48.75;7.07;;;;;;;;;;5070930;28;20141;-80
2022/01/12 12:17:32;;;;;;;38.60;7.28;;;;;;;;;;5071524;28;20037;-80
2022/01/12 12:19:59;;;;;;;39.47;7.90;;;;;;;;;;5071559;28;20068;-80
2022/01/12 12:22:27;;;;;;;54.88;8.23;;;;;;;;;;5071899;28;20044;-80
2022/01/12 12:24:57;;;;;;;37.10;8.35;;;;;;;;;;5071528;28;20051;-80
2022/01/12 12:27:24;;;;;;;42.63;8.57;;;;;;;;;;5054605;28;20056;-80
2022/01/12 12:29:51;;;;;;;31.15;8.73;;;;;;;;;;5071071;28;20043;-80
2022/01/12 12:32:19;;;;;;;51.00;9.13;;;;;;;;;;5072395;28;20497;-80
2022/01/12 12:34:46;;;;;;;43.22;9.77;;;;;;;;;;5071099;28;20131;-80
2022/01/12 12:37:14;;;;;;;43.83;9.02;;;;;;;;;;5070790;28;20040;-80
2022/01/12 12:39:42;;;;;;;84.22;8.75;;;;;;;;;;5071411;28;20048;-80
2022/01/12 12:42:21;;;;;;;39.60;8.80;;;;;;;;;;5070503;28;20036;-80
2022/01/12 12:44:48;;;;;;;59.55;8.38;;;;;;;;;;5070803;28;20040;-80
2022/01/12 12:47:18;;;;;;;45.00;8.50;;;;;;;;;;5054819;28;20051;-80
2022/01/12 12:49:58;;;;;;;44.28;9.15;;;;;;;;;;5073061;28;20472;-80
2022/01/12 12:52:31;;;;;;;34.25;7.72;;;;;;;;;;5071444;28;20128;-80
2022/01/12 12:54:58;;;;;;;37.47;8.18;;;;;;;;;;5070765;28;20098;-80
2022/01/12 12:57:26;;;;;;;45.40;8.02;;;;;;;;;;5054900;28;20040;-80
2022/01/12 13:00:03;;;;;;;57.60;8.20;;;;;;;;;;5071484;28;20506;-80
2022/01/12 13:02:37;;;;;;;38.63;8.57;;;;;;;;;;5072172;28;20048;-80
2022/01/12 13:05:04;;;;;;;45.15;8.40;;;;;;;;;;5070302;28;20071;-80
2022/01/12 13:07:35;;;;;;;25.83;7.80;;;;;;;;;;5070890;28;20044;-80
2022/01/12 13:10:08;;;;;;;41.03;8.15;;;;;;;;;;5054319;28;20048;-80
2022/01/12 13:12:41;;;;;;;56.03;7.60;;;;;;;;;;5072377;28;20045;-80
2022/01/12 13:15:10;;;;;;;66.03;7.47;;;;;;;;;;5069491;28;20087;-80
2022/01/12 13:17:39;;;;;;;48.70;6.65;;;;;;;;;;5071705;28;20048;-79
2022/01/12 13:22:40;;;;;;;34.47;6.43;;;;;;;;;;5070192;28;20075;-80
2022/01/12 13:25:08;;;;;;;35.72;7.05;;;;;;;;;;5069435;28;20162;-80
2022/01/12 13:27:35;;;;;;;39.58;6.25;;;;;;;;;;5070313;28;20123;-80
2022/01/12 13:30:01;;;;;;;49.03;7.25;;;;;;;;;;5053619;28;20396;-80
2022/01/12 13:32:27;;;;;;;39.08;6.80;;;;;;;;;;5070830;28;20051;-80
2022/01/12 13:35:04;;;;;;;33.35;6.85;;;;;;;;;;5054074;28;20041;-80
2022/01/12 13:37:31;;;;;;;41.08;6.60;;;;;;;;;;5069769;28;20373;-80
2022/01/12 13:40:08;;;;;;;49.25;6.40;;;;;;;;;;5069672;28;20049;-80
2022/01/12 13:42:45;;;;;;;48.13;6.82;;;;;;;;;;5071812;28;20048;-80
2022/01/12 13:45:15;;;;;;;39.97;7.22;;;;;;;;;;5054731;28;20119;-80
2022/01/12 13:47:42;;;;;;;49.72;7.63;;;;;;;;;;5071344;28;20048;-80
2022/01/12 13:50:09;;;;;;;34.00;7.65;;;;;;;;;;5070363;28;20047;-80
2022/01/12 13:52:36;;;;;;;38.28;7.57;;;;;;;;;;5070741;28;20396;-79
2022/01/12 13:55:13;;;;;;;63.90;7.47;;;;;;;;;;5052946;28;20128;-79
2022/01/12 13:57:40;;;;;;;72.13;8.43;;;;;;;;;;5069769;28;20063;-80
2022/01/12 14:00:09;;;;;;;63.38;7.97;;;;;;;;;;5069065;28;20040;-79
2022/01/12 14:02:42;;;;;;;61.47;8.10;;;;;;;;;;5069539;28;20045;-80
2022/01/12 14:05:11;;;;;;;40.15;7.05;;;;;;;;;;5068663;28;20484;-80
2022/01/12 14:07:40;;;;;;;59.65;7.72;;;;;;;;;;5070769;28;20044;-80
2022/01/12 14:10:07;;;;;;;42.85;8.02;;;;;;;;;;5070279;28;20040;-80
2022/01/12 14:12:33;;;;;;;75.50;7.93;;;;;;;;;;5070477;28;20127;-79
2022/01/12 14:15:01;;;;;;;62.67;7.57;;;;;;;;;;5069782;28;20514;-79
2022/01/12 14:17:27;;;;;;;44.40;7.57;;;;;;;;;;5069871;28;20621;-79
2022/01/12 14:19:54;;;;;;;52.35;7.97;;;;;;;;;;5070382;28;20049;-79
2022/01/12 14:22:20;;;;;;;38.63;7.40;;;;;;;;;;5068426;28;20037;-79
2022/01/12 14:24:57;;;;;;;70.30;8.73;;;;;;;;;;5068333;28;20041;-79
2022/01/12 14:27:23;;;;;;;76.35;10.40;;;;;;;;;;5068568;28;20044;-79
2022/01/12 14:29:49;;;;;;;50.60;9.50;;;;;;;;;;5068594;28;20048;-79
2022/01/12 14:32:15;;;;;;;60.17;10.15;;;;;;;;;;5068301;28;20052;-80
2022/01/12 14:34:41;;;;;;;65.70;10.18;;;;;;;;;;5035694;28;20040;-80
2022/01/12 14:37:09;;;;;;;59.80;10.60;;;;;;;;;;5068348;28;20036;-81
2022/01/12 14:39:35;;;;;;;71.00;10.70;;;;;;;;;;5068690;28;20057;-80
2022/01/12 14:42:02;;;;;;;61.58;11.27;;;;;;;;;;5068621;28;20047;-81
2022/01/12 14:44:32;;;;;;;51.90;10.50;;;;;;;;;;5070449;28;20080;-81
2022/01/12 14:46:59;;;;;;;52.92;11.38;;;;;;;;;;5068711;28;20488;-81
2022/01/12 14:49:25;;;;;;;69.22;12.55;;;;;;;;;;5069089;28;20128;-81
2022/01/12 14:51:51;;;;;;;57.75;11.45;;;;;;;;;;5068830;28;20127;-80
2022/01/12 14:54:17;;;;;;;64.25;12.38;;;;;;;;;;5051676;28;20036;-80
2022/01/12 14:56:44;;;;;;;92.03;13.80;;;;;;;;;;5068200;28;20040;-80
2022/01/12 14:59:10;;;;;;;55.67;11.80;;;;;;;;;;5051730;28;20045;-80
2022/01/12 15:01:36;;;;;;;89.88;13.88;;;;;;;;;;5068681;28;20076;-80
2022/01/12 15:04:02;;;;;;;82.72;13.43;;;;;;;;;;5051412;28;20051;-80
2022/01/12 15:06:28;;;;;;;71.28;12.65;;;;;;;;;;5068673;28;20049;-81
2022/01/12 15:08:54;;;;;;;71.78;13.45;;;;;;;;;;5070010;28;20041;-80
2022/01/12 15:11:20;;;;;;;71.80;12.50;;;;;;;;;;5069564;28;20075;-80
2022/01/12 15:13:59;;;;;;;82.65;13.43;;;;;;;;;;5068571;28;20045;-80
2022/01/12 15:16:25;;;;;;;100.78;15.18;;;;;;;;;;5068466;28;20076;-80
2022/01/12 15:18:51;;;;;;;87.05;14.77;;;;;;;;;;5051843;28;20037;-80
2022/01/12 15:21:17;;;;;;;97.40;14.38;;;;;;;;;;5068594;28;20036;-80
2022/01/12 15:23:44;;;;;;;106.45;16.17;;;;;;;;;;5035121;28;20044;-80
2022/01/12 15:26:10;;;;;;;91.03;16.30;;;;;;;;;;5067982;28;20055;-80
2022/01/12 15:28:36;;;;;;;100.65;17.13;;;;;;;;;;5068107;28;20097;-80
2022/01/12 15:31:02;;;;;;;93.75;17.92;;;;;;;;;;5069069;28;20041;-80
2022/01/12 15:33:29;;;;;;;97.85;19.20;;;;;;;;;;5069977;28;20200;-79
2022/01/12 15:35:55;;;;;;;91.18;19.20;;;;;;;;;;5068402;28;20101;-80
2022/01/12 15:38:21;;;;;;;105.18;19.65;;;;;;;;;;5071125;28;20542;-80